Weather History for KPNA - January, 2014

Change the Weather History Date:

Saturday, January 11, 2014

  Actual Average (KBPI) Record (KBPI)
Temperature  
Mean Temperature 27 °F 11 °F  
Max Temperature 35 °F 26 °F 46 °F (1999)
Min Temperature 19 °F -4 °F -26 °F (2011)
Degree Days  
Heating Degree Days 38 54  
Month to date heating degree days 594  
Since 1 July heating degree days 5033  
Cooling Degree Days 0 0  
Month to date cooling degree days 0  
Year to date cooling degree days 0  
Moisture  
Dew Point 27 °F    
Average Humidity 88    
Maximum Humidity 100    
Minimum Humidity 75    
Precipitation  
Precipitation 0.00 in 0.01 in 0.32 in (2005)
Month to date precipitation 0.12  
Year to date precipitation 0.12  
Sea Level Pressure  
Sea Level Pressure 29.89 in    
Wind  
Wind Speed 9 mph (SW)    
Max Wind Speed 32 mph    
Max Gust Speed 40 mph    
Visibility 9 miles    
Events Snow    
T = Trace of Precipitation, MM = Missing Value Source: NWS Daily Summary

Daily Weather History Graph

Daily Weather History Graph

Search for Another Location

Airport or City:

Trip Planner

Search our weather history database for the weather conditions in past years. The results will help you decide how hot, cold, wet, or windy it might be!

Date:

Astronomy

Jan. 11, 2014 Rise Set
Actual Time 7:48 AM MST 5:06 PM MST
Civil Twilight 7:17 AM MST 5:37 PM MST
Nautical Twilight 6:41 AM MST 6:12 PM MST
Astronomical Twilight 6:07 AM MST 6:46 PM MST
Moon 1:53 PM MST (1/11) 3:55 AM MST (1/11)
Length of Visible Light 10h 20m
Length of Day
9h 17m
Waxing Gibbous, 83% of the Moon is Illuminated
Jan 11
Waxing Gibbous
Jan 15
Full
Jan 23
Last Quarter
Jan 30
New
Feb 6
First Quarter

Hourly Weather History & Observations

Time (MST) Temp. Windchill Dew Point Humidity Pressure Visibility Wind Dir Wind Speed Gust Speed Precip Events Conditions
12:15 AM 19.4 °F 12.8 °F 17.6 °F 93% 30.01 in 10.0 mi WNW 4.6 mph - N/A   Mostly Cloudy
12:35 AM 23.0 °F 15.8 °F 21.2 °F 93% 30.03 in 10.0 mi West 5.8 mph - N/A   Overcast
12:55 AM 24.8 °F 16.1 °F 21.2 °F 86% 30.03 in 10.0 mi WNW 8.1 mph - N/A   Overcast
1:15 AM 26.6 °F 17.5 °F 21.2 °F 80% 30.01 in 10.0 mi WNW 9.2 mph - N/A   Overcast
1:35 AM 23.0 °F 14.7 °F 21.2 °F 93% 30.01 in 10.0 mi West 6.9 mph - N/A   Scattered Clouds
1:55 AM 26.6 °F 18.2 °F 23.0 °F 86% 30.03 in 10.0 mi West 8.1 mph - N/A   Mostly Cloudy
2:15 AM 26.6 °F 16.8 °F 23.0 °F 86% 30.03 in 10.0 mi West 10.4 mph - N/A   Overcast
2:35 AM 28.4 °F 19.7 °F 23.0 °F 80% 30.05 in 10.0 mi WNW 9.2 mph - N/A   Overcast
2:55 AM 26.6 °F 17.5 °F 23.0 °F 86% 30.04 in 10.0 mi WNW 9.2 mph - N/A   Overcast
3:15 AM 26.6 °F 18.2 °F 23.0 °F 86% 30.04 in 10.0 mi WNW 8.1 mph - N/A   Overcast
3:35 AM 26.6 °F 16.8 °F 23.0 °F 86% 30.05 in 10.0 mi WNW 10.4 mph - N/A   Overcast
3:55 AM 28.4 °F 19.1 °F 24.8 °F 86% 30.05 in 10.0 mi WNW 10.4 mph - N/A   Overcast
4:15 AM 28.4 °F 19.7 °F 24.8 °F 86% 30.05 in 10.0 mi West 9.2 mph - N/A   Overcast
4:35 AM 28.4 °F 20.4 °F 24.8 °F 86% 30.04 in 10.0 mi West 8.1 mph - N/A   Overcast
4:55 AM 28.4 °F 23.3 °F 24.8 °F 86% 30.03 in 10.0 mi West 4.6 mph - N/A   Overcast
5:15 AM 28.4 °F 23.3 °F 26.6 °F 93% 30.03 in 10.0 mi WNW 4.6 mph - N/A   Overcast
5:35 AM 26.6 °F - 24.8 °F 93% 30.03 in 10.0 mi Calm Calm - N/A   Overcast
5:55 AM 26.6 °F - 24.8 °F 93% 30.03 in 10.0 mi Calm Calm - N/A   Overcast
6:15 AM 26.6 °F 22.6 °F 24.8 °F 93% 30.01 in 10.0 mi WSW 3.5 mph - N/A   Overcast
6:35 AM 26.6 °F 22.6 °F 24.8 °F 93% 30.02 in 10.0 mi East 3.5 mph - N/A   Overcast
6:55 AM 24.8 °F 20.5 °F 23.0 °F 93% 30.02 in 10.0 mi SE 3.5 mph - N/A   Overcast
7:15 AM 26.6 °F - 24.8 °F 93% 30.03 in 10.0 mi Calm Calm - N/A   Overcast
7:35 AM 24.8 °F 19.1 °F 21.2 °F 86% 30.03 in 10.0 mi East 4.6 mph - N/A   Overcast
7:55 AM 23.0 °F 17.0 °F 21.2 °F 93% 30.03 in 10.0 mi East 4.6 mph - N/A   Overcast
8:15 AM 23.0 °F 17.0 °F 21.2 °F 93% 30.03 in 10.0 mi East 4.6 mph - N/A   Overcast
8:35 AM 24.8 °F 17.9 °F 23.0 °F 93% 30.03 in 10.0 mi ENE 5.8 mph - N/A   Overcast
8:55 AM 26.6 °F 18.2 °F 23.0 °F 86% 30.03 in 10.0 mi East 8.1 mph - N/A   Overcast
9:15 AM 26.6 °F 22.6 °F 23.0 °F 86% 30.04 in 10.0 mi ESE 3.5 mph - N/A   Overcast
9:35 AM 26.6 °F - 23.0 °F 86% 30.03 in 10.0 mi Calm Calm - N/A   Overcast
9:55 AM 28.4 °F - 23.0 °F 80% 30.03 in 10.0 mi Calm Calm - N/A   Overcast
10:15 AM 28.4 °F - 24.8 °F 86% 30.02 in 10.0 mi Calm Calm - N/A   Overcast
10:35 AM 30.2 °F 25.4 °F 26.6 °F 86% 30.01 in 10.0 mi East 4.6 mph - N/A   Overcast
10:55 AM 30.2 °F 22.6 °F 26.6 °F 86% 30.01 in 10.0 mi East 8.1 mph - N/A   Overcast
11:15 AM 32.0 °F 25.6 °F 26.6 °F 80% 29.99 in 10.0 mi East 6.9 mph - N/A   Overcast
11:35 AM 32.0 °F 23.6 °F 28.4 °F 87% 29.98 in 10.0 mi East 10.4 mph - N/A   Overcast
11:55 AM 32.0 °F 23.6 °F 30.2 °F 93% 29.96 in 10.0 mi East 10.4 mph - N/A   Overcast
12:15 PM 32.0 °F 23.6 °F 30.2 °F 93% 29.95 in 7.0 mi East 10.4 mph - N/A   Overcast
12:35 PM 33.8 °F 25.8 °F 30.2 °F 87% 29.93 in 10.0 mi East 10.4 mph - N/A   Overcast
12:55 PM 33.8 °F 24.8 °F 30.2 °F 87% 29.91 in 10.0 mi East 12.7 mph - N/A   Overcast
1:15 PM 33.8 °F 25.3 °F 30.2 °F 87% 29.90 in 10.0 mi East 11.5 mph - N/A   Overcast
1:35 PM 33.8 °F 24.8 °F 30.2 °F 87% 29.89 in 10.0 mi East 12.7 mph - N/A   Overcast
1:55 PM 33.8 °F 24.3 °F 32.0 °F 93% 29.87 in 10.0 mi East 13.8 mph - N/A   Overcast
2:15 PM 33.8 °F 24.3 °F 32.0 °F 93% 29.85 in 10.0 mi East 13.8 mph - N/A   Overcast
2:35 PM 33.8 °F 24.8 °F 30.2 °F 87% 29.84 in 10.0 mi SE 12.7 mph - N/A   Overcast
2:55 PM 33.8 °F 25.3 °F 30.2 °F 87% 29.83 in 10.0 mi SSE 11.5 mph - N/A   Overcast
3:15 PM 33.8 °F 25.3 °F 30.2 °F 87% 29.83 in 10.0 mi SSE 11.5 mph - N/A   Overcast
3:35 PM 33.8 °F 26.4 °F 30.2 °F 87% 29.82 in 10.0 mi SSE 9.2 mph - N/A   Overcast
3:55 PM 33.8 °F 25.8 °F 30.2 °F 87% 29.80 in 10.0 mi SSE 10.4 mph - N/A   Overcast
4:15 PM 35.6 °F 25.5 °F 28.4 °F 75% 29.79 in 10.0 mi South 17.3 mph - N/A   Overcast
4:35 PM 33.8 °F 23.9 °F 28.4 °F 81% 29.79 in 10.0 mi South 15.0 mph 20.7 mph N/A   Overcast
4:55 PM 33.8 °F 27.0 °F 30.2 °F 87% 29.77 in 10.0 mi South 8.1 mph - N/A   Overcast
5:15 PM 35.6 °F 26.2 °F 28.4 °F 75% 29.77 in 10.0 mi SW 15.0 mph 25.3 mph N/A   Overcast
5:35 PM 35.6 °F 27.1 °F 28.4 °F 75% 29.75 in 10.0 mi SW 12.7 mph 23.0 mph N/A   Overcast
5:55 PM 35.6 °F 26.2 °F 30.2 °F 81% 29.75 in 10.0 mi SW 15.0 mph 21.9 mph N/A   Overcast
6:15 PM 35.6 °F 25.5 °F 28.4 °F 75% 29.74 in 10.0 mi SW 17.3 mph 28.8 mph N/A   Scattered Clouds
6:35 PM 33.8 °F 25.3 °F 30.2 °F 87% 29.73 in 10.0 mi SW 11.5 mph 19.6 mph N/A   Scattered Clouds
6:55 PM 33.8 °F 25.8 °F 30.2 °F 87% 29.74 in 10.0 mi SW 10.4 mph - N/A   Mostly Cloudy
7:15 PM 33.8 °F 25.8 °F 30.2 °F 87% 29.72 in 7.0 mi SW 10.4 mph 19.6 mph N/A Snow Light Snow
7:35 PM 32.0 °F 21.6 °F 28.4 °F 87% 29.70 in 10.0 mi SW 15.0 mph 23.0 mph N/A   Scattered Clouds
7:55 PM 32.0 °F 22.5 °F 30.2 °F 93% 29.70 in 10.0 mi SW 12.7 mph 21.9 mph N/A   Scattered Clouds
8:15 PM 32.0 °F 20.5 °F 30.2 °F 93% 29.69 in 4.0 mi SSW 18.4 mph 23.0 mph N/A Snow Light Snow
8:35 PM 32.0 °F 21.6 °F 32.0 °F 100% 29.67 in 1.2 mi SW 15.0 mph 19.6 mph N/A Snow Light Snow
8:55 PM 32.0 °F 20.8 °F 32.0 °F 100% 29.67 in 10.0 mi SSW 17.3 mph 20.7 mph N/A   Mostly Cloudy
9:15 PM 32.0 °F 17.2 °F 30.2 °F 93% 29.65 in 7.0 mi SW 32.2 mph 40.3 mph N/A Snow Light Snow
9:35 PM 32.0 °F 19.8 °F 30.2 °F 93% 29.64 in 5.0 mi WSW 20.7 mph 34.5 mph N/A Snow Light Snow
9:55 PM 32.0 °F 22.1 °F 30.2 °F 93% 29.64 in 10.0 mi West 13.8 mph - N/A   Overcast
10:15 PM 32.0 °F 17.6 °F 32.0 °F 100% 29.66 in 0.2 mi West 29.9 mph 34.5 mph N/A Snow Snow
10:35 PM 30.2 °F 14.9 °F 28.4 °F 93% 29.67 in 2.0 mi West 31.1 mph 39.1 mph N/A Snow Light Snow
10:55 PM 28.4 °F 14.4 °F 26.6 °F 93% 29.69 in 4.0 mi West 23.0 mph 28.8 mph N/A   Overcast
11:15 PM 28.4 °F 15.1 °F 23.0 °F 80% 29.69 in 3.0 mi West 20.7 mph 34.5 mph N/A   Overcast
11:35 PM 26.6 °F 13.8 °F 23.0 °F 86% 29.68 in 10.0 mi WNW 17.3 mph 24.2 mph N/A   Mostly Cloudy
11:55 PM 26.6 °F 13.8 °F 23.0 °F 86% 29.68 in 10.0 mi WNW 17.3 mph 24.2 mph N/A   Scattered Clouds